createdAt,value
2022-12-31T00:00:21.898Z,92.79
2022-12-31T00:01:21.789Z,93.35
2022-12-31T00:02:21.946Z,93.40
2022-12-31T00:03:21.930Z,93.44
2022-12-31T00:04:21.753Z,93.86
2022-12-31T00:05:21.755Z,93.24
2022-12-31T00:06:21.747Z,93.76
2022-12-31T00:07:21.727Z,93.55
2022-12-31T00:08:21.721Z,93.24
2022-12-31T00:09:21.728Z,93.14
2022-12-31T00:10:21.697Z,93.76
2022-12-31T00:11:21.699Z,93.86
2022-12-31T00:12:21.692Z,93.86
2022-12-31T00:13:21.676Z,93.76
2022-12-31T00:14:21.654Z,93.96
2022-12-31T00:15:21.668Z,93.44
2022-12-31T00:16:21.689Z,93.65
2022-12-31T00:17:21.646Z,94.07
2022-12-31T00:18:21.612Z,93.96
2022-12-31T00:19:21.627Z,94.17
2022-12-31T00:20:21.583Z,93.86
2022-12-31T00:21:21.585Z,93.44
2022-12-31T00:22:21.571Z,93.65
2022-12-31T00:23:21.571Z,93.35
2022-12-31T00:24:21.556Z,93.35
2022-12-31T00:25:21.575Z,92.93
2022-12-31T00:26:21.525Z,92.99
2022-12-31T00:27:21.501Z,93.04
2022-12-31T00:28:21.497Z,93.51
2022-12-31T00:29:21.491Z,92.58
2022-12-31T00:30:21.478Z,92.99
2022-12-31T00:31:21.538Z,93.40
2022-12-31T00:32:21.456Z,93.51
2022-12-31T00:33:21.485Z,93.71
2022-12-31T00:34:21.439Z,93.40
2022-12-31T00:35:21.424Z,92.89
2022-12-31T00:36:21.418Z,93.04
2022-12-31T00:37:21.399Z,93.51
2022-12-31T00:38:21.384Z,93.20
2022-12-31T00:39:21.393Z,93.04
2022-12-31T00:40:21.754Z,93.10
2022-12-31T00:41:21.384Z,92.58
2022-12-31T00:42:21.334Z,92.99
2022-12-31T00:43:21.335Z,92.89
2022-12-31T00:44:21.330Z,92.58
2022-12-31T00:45:21.371Z,92.99
2022-12-31T00:46:21.343Z,93.20
2022-12-31T00:47:21.297Z,92.79
2022-12-31T00:48:21.283Z,93.10
2022-12-31T00:49:21.292Z,93.30
2022-12-31T00:50:21.287Z,93.44
2022-12-31T00:51:21.276Z,93.44
2022-12-31T00:52:21.235Z,93.35
2022-12-31T00:53:21.250Z,93.44
2022-12-31T00:54:21.233Z,93.65
2022-12-31T00:55:21.211Z,93.35
2022-12-31T00:56:21.217Z,93.10
2022-12-31T00:57:21.186Z,92.99
2022-12-31T00:58:21.169Z,92.69
2022-12-31T00:59:21.168Z,93.20
2022-12-31T01:00:21.160Z,93.20
2022-12-31T01:01:21.271Z,92.69
2022-12-31T01:02:21.301Z,92.48
2022-12-31T01:03:21.228Z,92.79
2022-12-31T01:04:21.131Z,92.99
2022-12-31T01:05:21.113Z,92.48
2022-12-31T01:06:21.127Z,92.89
2022-12-31T01:07:21.094Z,93.10
2022-12-31T01:08:21.079Z,93.20
2022-12-31T01:09:21.086Z,93.40
2022-12-31T01:10:21.044Z,93.30
2022-12-31T01:11:21.038Z,93.30
2022-12-31T01:12:21.018Z,92.99
2022-12-31T01:13:21.015Z,93.10
2022-12-31T01:14:21.000Z,93.40
2022-12-31T01:15:21.001Z,92.99
2022-12-31T01:16:21.000Z,93.05
2022-12-31T01:17:20.977Z,92.85
2022-12-31T01:18:20.985Z,92.74
2022-12-31T01:19:20.955Z,92.95
2022-12-31T01:20:20.970Z,92.74
2022-12-31T01:21:20.946Z,92.54
2022-12-31T01:22:20.932Z,92.60
2022-12-31T01:23:20.891Z,92.44
2022-12-31T01:24:20.906Z,92.85
2022-12-31T01:25:20.889Z,93.05
2022-12-31T01:26:20.890Z,93.16
2022-12-31T01:27:20.895Z,93.16
2022-12-31T01:28:20.856Z,92.70
2022-12-31T01:29:20.841Z,93.01
2022-12-31T01:30:20.835Z,92.91
2022-12-31T01:31:21.030Z,93.21
2022-12-31T01:32:20.816Z,92.80
2022-12-31T01:33:20.791Z,92.60
2022-12-31T01:34:20.830Z,92.70
2022-12-31T01:35:20.771Z,92.50
2022-12-31T01:36:25.565Z,92.40
2022-12-31T01:37:20.773Z,92.25
2022-12-31T01:38:20.775Z,92.35
2022-12-31T01:39:20.747Z,92.66
2022-12-31T01:40:20.722Z,92.46
2022-12-31T01:41:20.727Z,92.76
2022-12-31T01:42:20.704Z,92.76
2022-12-31T01:43:20.731Z,92.76
2022-12-31T01:44:20.670Z,92.76
2022-12-31T01:45:20.680Z,92.76
2022-12-31T01:46:20.754Z,92.46
2022-12-31T01:47:20.661Z,92.25
2022-12-31T01:48:20.666Z,92.61
2022-12-31T01:49:20.629Z,92.10
2022-12-31T01:50:20.639Z,92.21
2022-12-31T01:51:20.634Z,92.61
2022-12-31T01:52:20.599Z,92.41
2022-12-31T01:53:20.580Z,92.31
2022-12-31T01:54:20.579Z,92.10
2022-12-31T01:55:20.571Z,91.90
2022-12-31T01:56:20.567Z,92.31
2022-12-31T01:57:20.585Z,92.41
2022-12-31T01:58:20.513Z,92.41
2022-12-31T01:59:20.541Z,92.06
2022-12-31T02:00:20.514Z,92.27
2022-12-31T02:01:20.690Z,92.27
2022-12-31T02:02:20.601Z,91.96
2022-12-31T02:03:20.495Z,92.47
2022-12-31T02:04:20.453Z,91.96
2022-12-31T02:05:20.458Z,92.16
2022-12-31T02:06:20.448Z,92.16
2022-12-31T02:07:20.458Z,91.86
2022-12-31T02:08:20.420Z,91.91
2022-12-31T02:09:20.419Z,91.82
2022-12-31T02:10:20.386Z,91.82
2022-12-31T02:11:20.393Z,91.61
2022-12-31T02:12:20.394Z,91.91
2022-12-31T02:13:20.401Z,91.91
2022-12-31T02:14:20.353Z,92.12
2022-12-31T02:15:20.337Z,92.27
2022-12-31T02:16:20.353Z,92.43
2022-12-31T02:17:20.335Z,92.32
2022-12-31T02:18:20.313Z,92.27
2022-12-31T02:19:20.305Z,92.32
2022-12-31T02:20:20.288Z,92.12
2022-12-31T02:21:20.285Z,92.43
2022-12-31T02:22:20.270Z,92.32
2022-12-31T02:23:20.249Z,92.43
2022-12-31T02:24:20.241Z,92.02
2022-12-31T02:25:20.236Z,92.32
2022-12-31T02:28:40.379Z,91.82
2022-12-31T02:29:41.356Z,91.71
2022-12-31T02:30:41.355Z,91.91
2022-12-31T02:31:41.401Z,91.82
2022-12-31T02:32:41.379Z,91.91
2022-12-31T02:33:41.344Z,92.02
2022-12-31T02:34:41.315Z,92.12
2022-12-31T02:35:41.325Z,91.91
2022-12-31T02:36:41.302Z,92.22
2022-12-31T02:37:41.283Z,92.02
2022-12-31T02:38:41.321Z,91.82
2022-12-31T02:39:41.262Z,91.82
2022-12-31T02:40:41.252Z,92.02
2022-12-31T02:41:41.237Z,91.91
2022-12-31T02:42:41.244Z,92.32
2022-12-31T02:43:41.209Z,91.91
2022-12-31T02:44:41.214Z,92.02
2022-12-31T02:45:41.199Z,92.22
2022-12-31T02:46:41.269Z,92.32
2022-12-31T02:47:41.214Z,92.32
2022-12-31T02:48:41.161Z,92.12
2022-12-31T02:49:41.151Z,92.02
2022-12-31T02:50:41.132Z,92.02
2022-12-31T02:51:41.154Z,92.02
2022-12-31T02:52:41.125Z,92.22
2022-12-31T02:53:41.128Z,92.12
2022-12-31T02:54:41.095Z,92.22
2022-12-31T02:55:41.087Z,92.43
2022-12-31T02:56:41.071Z,92.43
2022-12-31T02:57:41.054Z,92.36
2022-12-31T02:58:41.053Z,92.27
2022-12-31T02:59:41.074Z,92.27
2022-12-31T03:00:41.064Z,92.47
2022-12-31T03:01:41.220Z,92.36
2022-12-31T03:02:41.041Z,92.47
2022-12-31T03:03:41.006Z,92.47
2022-12-31T03:04:40.986Z,92.51
2022-12-31T03:05:40.999Z,92.72
2022-12-31T03:06:40.977Z,92.61
2022-12-31T03:07:40.949Z,92.72
2022-12-31T03:08:40.983Z,92.72
2022-12-31T03:09:40.928Z,92.82
2022-12-31T03:10:40.923Z,92.72
2022-12-31T03:11:40.959Z,92.82
2022-12-31T03:12:40.891Z,92.82
2022-12-31T03:13:40.907Z,92.61
2022-12-31T03:14:40.890Z,92.93
2022-12-31T03:15:40.874Z,92.82
2022-12-31T03:16:40.874Z,92.93
2022-12-31T03:17:40.872Z,93.02
2022-12-31T03:18:40.863Z,93.02
2022-12-31T03:19:40.822Z,93.02
2022-12-31T03:20:40.815Z,93.23
2022-12-31T03:21:40.804Z,93.33
2022-12-31T03:22:40.814Z,93.13
2022-12-31T03:23:40.829Z,93.23
2022-12-31T03:24:40.774Z,93.02
2022-12-31T03:25:40.768Z,92.93
2022-12-31T03:26:40.758Z,93.02
2022-12-31T03:27:40.734Z,93.13
2022-12-31T03:28:40.717Z,93.23
2022-12-31T03:29:40.783Z,93.02
2022-12-31T03:30:40.739Z,93.02
2022-12-31T03:31:40.850Z,93.13
2022-12-31T03:32:40.716Z,92.82
2022-12-31T03:33:40.680Z,93.23
2022-12-31T03:34:40.702Z,93.33
2022-12-31T03:35:40.655Z,93.54
2022-12-31T03:36:40.648Z,93.54
2022-12-31T03:37:40.665Z,93.33
2022-12-31T03:38:40.649Z,93.44
2022-12-31T03:39:40.631Z,93.33
2022-12-31T03:40:40.613Z,93.29
2022-12-31T03:41:40.606Z,93.19
2022-12-31T03:42:40.585Z,93.29
2022-12-31T03:43:40.570Z,93.29
2022-12-31T03:44:40.582Z,93.49
2022-12-31T03:45:40.575Z,93.29
2022-12-31T03:46:40.541Z,93.08
2022-12-31T03:47:40.516Z,92.98
2022-12-31T03:48:40.516Z,92.57
2022-12-31T03:49:40.522Z,92.68
2022-12-31T03:50:40.508Z,92.47
2022-12-31T03:51:40.497Z,92.63
2022-12-31T03:52:40.494Z,92.68
2022-12-31T03:53:40.470Z,92.74
2022-12-31T03:54:40.473Z,92.74
2022-12-31T03:55:40.435Z,92.83
2022-12-31T03:56:40.437Z,92.32
2022-12-31T03:57:40.456Z,92.22
2022-12-31T03:58:40.396Z,92.12
2022-12-31T03:59:40.397Z,92.02
2022-12-31T04:00:40.456Z,91.67
2022-12-31T04:01:40.487Z,91.91
2022-12-31T04:02:40.391Z,91.97
2022-12-31T04:03:40.352Z,92.18
2022-12-31T04:04:40.338Z,92.18
2022-12-31T04:05:40.353Z,92.18
2022-12-31T04:06:40.321Z,92.18
2022-12-31T04:07:40.325Z,91.97
2022-12-31T04:08:40.281Z,91.87
2022-12-31T04:09:40.318Z,91.77
2022-12-31T04:10:40.302Z,91.97
2022-12-31T04:11:40.267Z,91.97
2022-12-31T04:12:40.259Z,91.87
2022-12-31T04:13:40.263Z,91.87
2022-12-31T04:14:40.221Z,91.67
2022-12-31T04:15:40.255Z,91.77
2022-12-31T04:16:40.315Z,91.56
2022-12-31T04:17:40.206Z,91.16
2022-12-31T04:18:40.184Z,91.46
2022-12-31T04:19:40.184Z,91.46
2022-12-31T04:20:40.186Z,91.67
2022-12-31T04:21:40.157Z,91.56
2022-12-31T04:22:40.152Z,91.46
2022-12-31T04:23:40.131Z,91.56
2022-12-31T04:24:40.153Z,91.31
2022-12-31T04:25:40.140Z,91.31
2022-12-31T04:26:40.096Z,91.22
2022-12-31T04:27:40.141Z,91.42
2022-12-31T04:28:40.080Z,91.73
2022-12-31T04:29:40.080Z,91.31
2022-12-31T04:30:40.062Z,91.63
2022-12-31T04:31:40.177Z,91.52
2022-12-31T04:32:40.044Z,91.73
2022-12-31T04:33:40.023Z,91.52
2022-12-31T04:34:40.016Z,91.31
2022-12-31T04:35:40.039Z,91.42
2022-12-31T04:36:39.996Z,91.11
2022-12-31T04:37:39.995Z,91.42
2022-12-31T04:38:39.974Z,91.22
2022-12-31T04:39:39.968Z,90.97
2022-12-31T04:40:39.963Z,90.66
2022-12-31T04:41:39.965Z,90.77
2022-12-31T04:42:39.919Z,91.07
2022-12-31T04:43:39.926Z,91.38
2022-12-31T04:44:39.914Z,91.38
2022-12-31T04:45:39.949Z,91.27
2022-12-31T04:46:39.883Z,91.58
2022-12-31T04:47:39.876Z,91.69
2022-12-31T04:48:39.862Z,91.99
2022-12-31T04:49:39.849Z,92.10
2022-12-31T04:50:39.869Z,91.99
2022-12-31T04:51:39.859Z,91.89
2022-12-31T04:52:43.059Z,91.78
2022-12-31T04:53:39.814Z,91.58
2022-12-31T04:54:39.798Z,91.78
2022-12-31T04:55:39.809Z,91.69
2022-12-31T04:56:39.993Z,91.69
2022-12-31T04:57:39.815Z,91.78
2022-12-31T04:58:39.792Z,91.48
2022-12-31T04:59:39.771Z,91.58
2022-12-31T05:00:39.750Z,91.54
2022-12-31T05:01:39.845Z,91.23
2022-12-31T05:02:39.906Z,91.64
2022-12-31T05:03:39.703Z,91.85
2022-12-31T05:04:39.693Z,91.85
2022-12-31T05:05:39.689Z,91.64
2022-12-31T05:06:39.721Z,91.78
2022-12-31T05:07:39.686Z,91.74
2022-12-31T05:08:39.666Z,91.54
2022-12-31T05:09:39.647Z,91.85
2022-12-31T05:10:39.631Z,91.85
2022-12-31T05:11:39.659Z,91.85
2022-12-31T05:12:39.616Z,91.74
2022-12-31T05:13:39.612Z,91.74
2022-12-31T05:14:39.588Z,91.85
2022-12-31T05:15:39.571Z,91.85
2022-12-31T05:16:39.619Z,91.64
2022-12-31T05:17:39.584Z,91.33
2022-12-31T05:18:39.587Z,91.54
2022-12-31T05:19:39.525Z,91.54
2022-12-31T05:20:39.529Z,91.50
2022-12-31T05:21:39.526Z,91.50
2022-12-31T05:22:39.528Z,91.50
2022-12-31T05:23:39.495Z,91.70
2022-12-31T05:24:39.507Z,91.70
2022-12-31T05:25:39.462Z,91.64
2022-12-31T05:26:39.462Z,91.50
2022-12-31T05:27:39.453Z,92.01
2022-12-31T05:28:39.450Z,92.42
2022-12-31T05:29:39.448Z,93.13
2022-12-31T05:30:39.448Z,93.54
2022-12-31T05:31:39.415Z,94.36
2022-12-31T05:32:39.395Z,94.77
2022-12-31T05:33:39.378Z,95.94
2022-12-31T05:34:39.372Z,96.45
2022-12-31T05:35:39.361Z,97.37
2022-12-31T05:36:39.350Z,97.98
2022-12-31T05:37:39.350Z,99.15
2022-12-31T05:38:39.335Z,99.77
2022-12-31T05:39:39.308Z,99.99
2022-12-31T05:40:39.310Z,99.99
2022-12-31T05:41:39.326Z,99.99
2022-12-31T05:42:39.321Z,99.99
2022-12-31T05:43:39.297Z,99.99
2022-12-31T05:44:39.301Z,99.99
2022-12-31T05:45:39.260Z,99.99
2022-12-31T05:46:39.259Z,99.99
2022-12-31T05:47:39.245Z,99.99
2022-12-31T05:48:39.283Z,99.99
2022-12-31T05:49:39.200Z,99.99
2022-12-31T05:50:39.199Z,99.99
2022-12-31T05:51:39.183Z,99.99
2022-12-31T05:52:39.192Z,99.99
2022-12-31T05:53:39.164Z,99.99
2022-12-31T05:54:39.174Z,99.99
2022-12-31T05:55:39.169Z,99.99
2022-12-31T05:56:39.144Z,99.99
2022-12-31T05:57:39.152Z,99.99
2022-12-31T05:58:39.161Z,99.99
2022-12-31T05:59:39.105Z,99.99
2022-12-31T06:00:39.098Z,99.99
2022-12-31T06:01:39.105Z,99.99
2022-12-31T06:02:39.169Z,99.99
2022-12-31T06:03:39.146Z,99.99
2022-12-31T06:04:39.054Z,99.99
2022-12-31T06:05:39.045Z,99.99
2022-12-31T06:06:39.029Z,99.99
2022-12-31T06:07:39.024Z,99.99
2022-12-31T06:08:39.017Z,99.99
2022-12-31T06:09:38.996Z,99.99
2022-12-31T06:10:38.981Z,99.99
2022-12-31T06:11:39.006Z,99.99
2022-12-31T06:12:38.991Z,99.99
2022-12-31T06:13:38.948Z,99.99
2022-12-31T06:14:45.307Z,99.99
2022-12-31T06:15:38.963Z,99.99
2022-12-31T06:16:38.907Z,99.99
2022-12-31T06:17:38.946Z,99.99
2022-12-31T06:18:38.905Z,99.99
2022-12-31T06:19:38.888Z,99.99
2022-12-31T06:20:38.889Z,99.52
2022-12-31T06:21:38.879Z,99.16
2022-12-31T06:22:38.859Z,99.06
2022-12-31T06:23:38.884Z,98.96
2022-12-31T06:24:38.840Z,98.86
2022-12-31T06:25:38.808Z,98.65
2022-12-31T06:26:38.826Z,98.55
2022-12-31T06:27:38.821Z,98.65
2022-12-31T06:28:38.801Z,98.55
2022-12-31T06:29:38.779Z,98.14
2022-12-31T06:30:38.839Z,98.14
2022-12-31T06:31:38.755Z,97.89
2022-12-31T06:32:38.767Z,97.74
2022-12-31T06:33:38.767Z,97.08
2022-12-31T06:34:38.743Z,96.97
2022-12-31T06:35:38.773Z,96.97
2022-12-31T06:36:38.690Z,96.77
2022-12-31T06:37:38.704Z,96.56
2022-12-31T06:38:38.703Z,96.77
2022-12-31T06:39:38.692Z,97.08
2022-12-31T06:40:38.679Z,96.87
2022-12-31T06:41:38.643Z,97.17
2022-12-31T06:42:38.642Z,97.38
2022-12-31T06:43:38.651Z,97.08
2022-12-31T06:44:38.626Z,96.97
2022-12-31T06:45:38.630Z,96.21
2022-12-31T06:46:38.641Z,95.39
2022-12-31T06:47:38.587Z,95.50
2022-12-31T06:48:38.552Z,95.35
2022-12-31T06:49:38.532Z,95.96
2022-12-31T06:50:38.579Z,95.35
2022-12-31T06:51:38.501Z,95.04
2022-12-31T06:52:38.502Z,95.45
2022-12-31T06:53:38.490Z,95.15
2022-12-31T06:54:38.486Z,94.84
2022-12-31T06:55:38.440Z,94.53
2022-12-31T06:56:38.465Z,94.64
2022-12-31T06:57:38.424Z,94.43
2022-12-31T06:58:38.448Z,94.33
2022-12-31T06:59:38.399Z,93.77
2022-12-31T07:00:38.436Z,93.77
2022-12-31T07:01:38.511Z,93.47
2022-12-31T07:02:38.548Z,93.47
2022-12-31T07:03:38.489Z,93.67
2022-12-31T07:04:38.377Z,93.37
2022-12-31T07:05:38.344Z,93.26
2022-12-31T07:06:38.341Z,93.67
2022-12-31T07:07:38.319Z,93.77
2022-12-31T07:08:38.318Z,94.18
2022-12-31T07:09:38.292Z,94.08
2022-12-31T07:10:38.274Z,94.29
2022-12-31T07:11:38.275Z,93.57
2022-12-31T07:12:38.261Z,93.67
2022-12-31T07:13:38.265Z,92.96
2022-12-31T07:14:38.252Z,93.06
2022-12-31T07:15:38.340Z,93.06
2022-12-31T07:16:38.215Z,93.16
2022-12-31T07:17:38.227Z,93.06
2022-12-31T07:18:38.203Z,93.26
2022-12-31T07:19:38.192Z,92.41
2022-12-31T07:20:38.177Z,92.91
2022-12-31T07:21:38.184Z,92.81
2022-12-31T07:22:38.160Z,92.61
2022-12-31T07:23:38.138Z,91.89
2022-12-31T07:24:38.143Z,92.20
2022-12-31T07:25:38.128Z,91.96
2022-12-31T07:26:38.137Z,91.96
2022-12-31T07:27:38.087Z,91.65
2022-12-31T07:28:38.095Z,91.44
2022-12-31T07:29:38.119Z,91.24
2022-12-31T07:30:38.080Z,91.24
2022-12-31T07:31:38.071Z,91.14
2022-12-31T07:32:38.045Z,90.99
2022-12-31T07:33:38.059Z,91.03
2022-12-31T07:34:38.034Z,90.94
2022-12-31T07:35:38.012Z,90.18
2022-12-31T07:36:37.999Z,90.18
2022-12-31T07:37:37.981Z,89.87
2022-12-31T07:38:37.998Z,89.36
2022-12-31T07:39:37.971Z,89.32
2022-12-31T07:40:38.010Z,89.63
2022-12-31T07:41:37.952Z,89.73
2022-12-31T07:42:37.945Z,89.87
2022-12-31T07:43:37.944Z,89.87
2022-12-31T07:44:37.925Z,89.47
2022-12-31T07:45:37.909Z,89.77
2022-12-31T07:46:37.936Z,89.42
2022-12-31T07:47:37.871Z,89.53
2022-12-31T07:48:37.895Z,88.71
2022-12-31T07:49:37.870Z,88.20
2022-12-31T07:50:37.850Z,88.61
2022-12-31T07:51:37.837Z,88.51
2022-12-31T07:52:37.853Z,87.96
2022-12-31T07:53:37.822Z,88.06
2022-12-31T07:54:37.830Z,88.31
2022-12-31T07:55:37.781Z,88.06
2022-12-31T07:56:37.789Z,87.75
2022-12-31T07:57:37.776Z,87.55
2022-12-31T07:58:37.761Z,87.55
2022-12-31T07:59:37.741Z,87.55
2022-12-31T08:00:37.765Z,87.85
2022-12-31T08:01:37.913Z,87.45
2022-12-31T08:02:37.756Z,87.24
2022-12-31T08:03:37.707Z,87.65
2022-12-31T08:04:37.682Z,87.65
2022-12-31T08:05:37.692Z,87.96
2022-12-31T08:06:37.679Z,87.45
2022-12-31T08:07:37.678Z,87.65
2022-12-31T08:08:37.763Z,86.90
2022-12-31T08:09:37.631Z,86.69
2022-12-31T08:10:37.636Z,87.00
2022-12-31T08:11:37.638Z,86.69
2022-12-31T08:12:37.610Z,86.29
2022-12-31T08:13:37.663Z,86.19
2022-12-31T08:14:37.591Z,86.19
2022-12-31T08:15:37.584Z,86.39
2022-12-31T08:16:37.624Z,86.39
2022-12-31T08:17:37.552Z,86.19
2022-12-31T08:18:37.549Z,86.29
2022-12-31T08:19:37.540Z,85.84
2022-12-31T08:20:37.569Z,85.94
2022-12-31T08:21:37.513Z,86.15
2022-12-31T08:22:37.505Z,85.98
2022-12-31T08:23:37.495Z,85.64
2022-12-31T08:24:37.493Z,85.13
2022-12-31T08:25:37.533Z,85.23
2022-12-31T08:26:37.465Z,85.03
2022-12-31T08:27:37.469Z,85.13
2022-12-31T08:28:37.435Z,85.23
2022-12-31T08:29:37.431Z,85.03
2022-12-31T08:30:37.440Z,84.92
2022-12-31T08:31:37.500Z,84.58
2022-12-31T08:32:37.419Z,85.23
2022-12-31T08:33:37.376Z,84.99
2022-12-31T08:34:37.381Z,84.48
2022-12-31T08:35:37.368Z,84.48
2022-12-31T08:36:37.354Z,84.38
2022-12-31T08:37:37.345Z,84.68
2022-12-31T08:38:37.328Z,84.17
2022-12-31T08:39:37.319Z,84.58
2022-12-31T08:40:37.325Z,83.97
2022-12-31T08:41:42.458Z,84.07
2022-12-31T08:42:37.300Z,83.87
2022-12-31T08:43:37.272Z,83.97
2022-12-31T08:44:37.277Z,83.87
2022-12-31T08:45:37.316Z,83.67
2022-12-31T08:46:37.283Z,83.76
2022-12-31T08:47:38.684Z,83.97
2022-12-31T08:48:37.235Z,83.87
2022-12-31T08:49:37.205Z,83.12
2022-12-31T08:50:37.198Z,83.01
2022-12-31T08:51:37.198Z,83.42
2022-12-31T08:52:37.203Z,83.42
2022-12-31T08:53:37.180Z,83.32
2022-12-31T08:54:37.148Z,83.62
2022-12-31T08:55:37.144Z,83.62
2022-12-31T08:56:37.159Z,83.42
2022-12-31T08:57:37.136Z,83.32
2022-12-31T08:58:37.122Z,82.92
2022-12-31T08:59:37.128Z,83.12
2022-12-31T09:00:37.079Z,83.12
2022-12-31T09:01:37.196Z,82.92
2022-12-31T09:02:37.094Z,82.92
2022-12-31T09:03:37.084Z,82.47
2022-12-31T09:04:37.115Z,82.26
2022-12-31T09:05:37.060Z,82.37
2022-12-31T09:06:37.018Z,81.86
2022-12-31T09:07:37.020Z,82.06
2022-12-31T09:08:36.999Z,81.96
2022-12-31T09:09:37.012Z,81.86
2022-12-31T09:10:37.010Z,81.86
2022-12-31T09:11:36.977Z,81.86
2022-12-31T09:12:36.966Z,82.26
2022-12-31T09:13:36.951Z,82.26
2022-12-31T09:14:36.938Z,82.17
2022-12-31T09:15:36.915Z,82.37
2022-12-31T09:16:36.999Z,82.06
2022-12-31T09:17:36.898Z,82.26
2022-12-31T09:18:36.942Z,82.47
2022-12-31T09:19:36.884Z,81.72
2022-12-31T09:20:44.708Z,82.03
2022-12-31T09:21:36.919Z,81.92
2022-12-31T09:22:36.865Z,81.31
2022-12-31T09:23:36.831Z,81.52
2022-12-31T09:24:36.830Z,81.31
2022-12-31T09:25:36.812Z,80.87
2022-12-31T09:26:36.795Z,80.16
2022-12-31T09:27:36.824Z,79.72
2022-12-31T09:28:36.776Z,79.00
2022-12-31T09:29:36.761Z,79.58
2022-12-31T09:30:36.740Z,78.87
2022-12-31T09:31:36.774Z,78.77
2022-12-31T09:32:36.750Z,78.46
2022-12-31T09:33:36.743Z,78.36
2022-12-31T09:34:36.729Z,78.36
2022-12-31T09:35:36.712Z,78.12
2022-12-31T09:36:36.685Z,78.02
2022-12-31T09:37:36.693Z,78.02
2022-12-31T09:38:36.660Z,77.61
2022-12-31T09:39:36.666Z,77.31
2022-12-31T09:40:36.674Z,76.77
2022-12-31T09:41:36.655Z,76.36
2022-12-31T09:42:36.646Z,76.43
2022-12-31T09:43:36.629Z,75.82
2022-12-31T09:44:36.600Z,76.23
2022-12-31T09:45:36.658Z,75.82
2022-12-31T09:46:36.623Z,76.53
2022-12-31T09:47:36.583Z,75.62
2022-12-31T09:48:36.558Z,75.18
2022-12-31T09:49:36.555Z,74.94
2022-12-31T09:50:36.527Z,74.33
2022-12-31T09:51:36.528Z,74.98
2022-12-31T09:52:36.530Z,74.77
2022-12-31T09:53:36.540Z,75.58
2022-12-31T09:54:36.511Z,75.28
2022-12-31T09:55:36.499Z,75.07
2022-12-31T09:56:36.476Z,75.48
2022-12-31T09:57:36.489Z,75.68
2022-12-31T09:58:36.479Z,75.58
2022-12-31T09:59:36.467Z,75.07
2022-12-31T10:00:36.455Z,74.87
2022-12-31T10:01:36.542Z,74.84
2022-12-31T10:02:36.631Z,74.43
2022-12-31T10:03:36.452Z,74.94
2022-12-31T10:04:36.387Z,74.43
2022-12-31T10:05:36.396Z,74.84
2022-12-31T10:06:36.368Z,75.38
2022-12-31T10:07:36.369Z,75.28
2022-12-31T10:08:36.345Z,74.87
2022-12-31T10:09:36.334Z,75.89
2022-12-31T10:10:36.314Z,75.89
2022-12-31T10:11:36.339Z,76.23
2022-12-31T10:12:36.784Z,76.03
2022-12-31T10:13:36.308Z,76.12
2022-12-31T10:14:36.270Z,76.32
2022-12-31T10:15:36.288Z,76.12
2022-12-31T10:16:36.283Z,76.63
2022-12-31T10:17:36.270Z,76.43
2022-12-31T10:18:36.274Z,75.48
2022-12-31T10:19:36.223Z,75.14
2022-12-31T10:20:41.558Z,74.30
2022-12-31T10:21:36.262Z,73.35
2022-12-31T10:22:36.196Z,73.05
2022-12-31T10:23:36.198Z,72.85
2022-12-31T10:24:36.164Z,73.69
2022-12-31T10:25:38.572Z,73.90
2022-12-31T10:26:36.158Z,73.99
2022-12-31T10:27:36.188Z,74.54
2022-12-31T10:28:36.130Z,74.33
2022-12-31T10:29:36.105Z,74.94
2022-12-31T10:30:36.180Z,75.24
2022-12-31T10:31:36.111Z,75.24
2022-12-31T10:32:36.099Z,75.18
2022-12-31T10:33:36.133Z,75.18
2022-12-31T10:34:36.050Z,74.94
2022-12-31T10:35:36.064Z,74.94
2022-12-31T10:36:36.032Z,75.04
2022-12-31T10:37:36.019Z,75.04
2022-12-31T10:38:36.006Z,75.14
2022-12-31T10:39:36.015Z,75.48
2022-12-31T10:40:35.978Z,75.89
2022-12-31T10:41:35.987Z,75.99
2022-12-31T10:42:36.013Z,75.79
2022-12-31T10:43:35.969Z,75.68
2022-12-31T10:44:35.953Z,75.38
2022-12-31T10:45:35.935Z,75.38
2022-12-31T10:46:35.943Z,75.48
2022-12-31T10:47:35.918Z,74.94
2022-12-31T10:48:35.915Z,74.74
2022-12-31T10:49:35.906Z,74.94
2022-12-31T10:50:35.870Z,75.04
2022-12-31T10:51:35.894Z,74.94
2022-12-31T10:52:41.581Z,75.18
2022-12-31T10:53:35.860Z,75.38
2022-12-31T10:54:35.843Z,74.77
2022-12-31T10:55:35.829Z,75.07
2022-12-31T10:56:35.841Z,75.07
2022-12-31T10:57:35.822Z,75.18
2022-12-31T10:58:35.821Z,75.18
2022-12-31T10:59:35.799Z,74.98
2022-12-31T11:00:35.767Z,75.04
2022-12-31T11:01:35.873Z,74.98
2022-12-31T11:02:36.023Z,75.24
2022-12-31T11:03:35.771Z,74.77
2022-12-31T11:04:35.764Z,75.89
2022-12-31T11:05:35.723Z,76.39
2022-12-31T11:06:35.741Z,76.19
2022-12-31T11:07:35.812Z,77.10
2022-12-31T11:08:35.677Z,77.34
2022-12-31T11:09:35.688Z,76.93
2022-12-31T11:10:35.666Z,77.24
2022-12-31T11:11:35.652Z,77.34
2022-12-31T11:12:35.637Z,77.03
2022-12-31T11:13:35.631Z,77.14
2022-12-31T11:14:35.632Z,77.24
2022-12-31T11:15:35.671Z,77.44
2022-12-31T11:16:35.598Z,77.03
2022-12-31T11:17:35.589Z,77.34
2022-12-31T11:18:35.585Z,77.24
2022-12-31T11:19:35.583Z,77.03
2022-12-31T11:20:35.557Z,77.14
2022-12-31T11:21:40.990Z,77.34
2022-12-31T11:22:35.567Z,77.24
2022-12-31T11:23:35.574Z,77.03
2022-12-31T11:24:35.551Z,76.93
2022-12-31T11:25:35.556Z,76.73
2022-12-31T11:26:35.484Z,76.32
2022-12-31T11:27:35.486Z,76.32
2022-12-31T11:28:35.455Z,75.89
2022-12-31T11:29:35.497Z,76.09
2022-12-31T11:30:35.463Z,76.39
2022-12-31T11:31:35.459Z,76.09
2022-12-31T11:32:35.440Z,75.89
2022-12-31T11:33:35.404Z,75.99
2022-12-31T11:34:35.419Z,75.79
2022-12-31T11:35:35.413Z,75.58
2022-12-31T11:36:35.415Z,75.58
2022-12-31T11:37:35.428Z,75.48
2022-12-31T11:38:35.364Z,75.48
2022-12-31T11:39:35.356Z,75.14
2022-12-31T11:40:35.363Z,75.45
2022-12-31T11:41:35.367Z,74.94
2022-12-31T11:42:36.102Z,75.24
2022-12-31T11:43:35.329Z,74.74
2022-12-31T11:44:35.301Z,74.84
2022-12-31T11:45:35.317Z,74.43
2022-12-31T11:46:35.332Z,74.43
2022-12-31T11:47:44.655Z,74.43
2022-12-31T11:48:35.254Z,74.33
2022-12-31T11:49:35.303Z,74.43
2022-12-31T11:50:35.242Z,74.33
2022-12-31T11:51:35.242Z,73.83
2022-12-31T11:52:35.197Z,74.10
2022-12-31T11:53:35.233Z,73.90
2022-12-31T11:54:35.178Z,73.90
2022-12-31T11:55:35.197Z,73.69
2022-12-31T11:56:35.169Z,73.79
2022-12-31T11:57:35.144Z,73.59
2022-12-31T11:58:35.130Z,73.59
2022-12-31T11:59:35.159Z,73.39
2022-12-31T12:00:35.120Z,73.39
2022-12-31T12:01:35.183Z,73.19
2022-12-31T12:02:35.126Z,73.28
2022-12-31T12:03:35.112Z,72.88
2022-12-31T12:04:35.086Z,72.64
2022-12-31T12:05:35.103Z,72.34
2022-12-31T12:06:35.057Z,72.44
2022-12-31T12:07:35.050Z,72.34
2022-12-31T12:08:35.024Z,72.64
2022-12-31T12:09:35.052Z,72.44
2022-12-31T12:10:36.721Z,72.75
2022-12-31T12:11:35.005Z,72.04
2022-12-31T12:12:34.993Z,72.31
2022-12-31T12:13:34.983Z,72.14
2022-12-31T12:14:34.983Z,72.04
2022-12-31T12:15:34.964Z,72.55
2022-12-31T12:16:34.965Z,72.24
2022-12-31T12:17:34.932Z,72.11
2022-12-31T12:18:34.927Z,71.91
2022-12-31T12:19:34.940Z,71.50
2022-12-31T12:20:34.907Z,71.70
2022-12-31T12:21:34.910Z,71.60
2022-12-31T12:22:34.908Z,71.84
2022-12-31T12:23:34.887Z,71.84
2022-12-31T12:24:34.853Z,72.14
2022-12-31T12:25:34.870Z,72.04
2022-12-31T12:26:34.845Z,72.14
2022-12-31T12:27:34.846Z,72.44
2022-12-31T12:28:38.390Z,72.34
2022-12-31T12:29:34.803Z,72.14
2022-12-31T12:30:34.808Z,72.55
2022-12-31T12:31:34.799Z,72.75
2022-12-31T12:32:34.762Z,72.64
2022-12-31T12:33:34.776Z,72.55
2022-12-31T12:34:34.808Z,72.55
2022-12-31T12:35:34.746Z,72.75
2022-12-31T12:36:34.754Z,72.64
2022-12-31T12:37:34.718Z,72.99
2022-12-31T12:38:34.690Z,72.75
2022-12-31T12:39:34.715Z,72.95
2022-12-31T12:40:34.758Z,72.78
2022-12-31T12:41:34.677Z,72.55
2022-12-31T12:42:34.668Z,72.58
2022-12-31T12:43:34.671Z,72.88
2022-12-31T12:44:34.627Z,72.99
2022-12-31T12:45:34.641Z,72.88
2022-12-31T12:46:34.671Z,73.08
2022-12-31T12:47:34.620Z,72.99
2022-12-31T12:48:34.668Z,73.08
2022-12-31T12:49:34.594Z,72.58
2022-12-31T12:50:34.585Z,72.78
2022-12-31T12:51:34.560Z,72.58
2022-12-31T12:52:34.583Z,72.34
2022-12-31T12:53:34.590Z,72.24
2022-12-31T12:54:34.544Z,72.24